createdAt,value
2023-01-11T00:00:57.077Z,0.20
2023-01-11T00:05:59.333Z,0.17
2023-01-11T00:11:02.536Z,0.30
2023-01-11T00:16:08.339Z,0.22
2023-01-11T00:21:10.850Z,0.40
2023-01-11T00:26:13.586Z,0.22
2023-01-11T00:31:16.207Z,0.75
2023-01-11T00:36:18.157Z,0.10
2023-01-11T00:41:39.600Z,0.10
2023-01-11T00:47:00.010Z,0.20
2023-01-11T00:52:02.302Z,0.40
2023-01-11T00:57:04.785Z,0.20
2023-01-11T01:02:06.811Z,0.20
2023-01-11T01:07:09.014Z,0.08
2023-01-11T01:12:11.108Z,0.20
2023-01-11T01:17:13.049Z,0.30
2023-01-11T01:22:14.939Z,0.10
2023-01-11T01:27:18.084Z,0.20
2023-01-11T01:32:20.096Z,0.10
2023-01-11T01:37:21.914Z,0.10
2023-01-11T01:42:24.587Z,0.10
2023-01-11T01:47:32.615Z,0.00
2023-01-11T01:52:35.559Z,0.10
2023-01-11T01:57:41.101Z,0.10
2023-01-11T02:02:44.749Z,0.00
2023-01-11T02:07:47.498Z,0.10
2023-01-11T02:12:56.119Z,0.20
2023-01-11T02:17:57.999Z,0.10
2023-01-11T02:23:24.706Z,0.10
2023-01-11T02:28:41.839Z,0.13
2023-01-11T02:34:05.364Z,0.10
2023-01-11T02:39:34.075Z,0.10
2023-01-11T02:45:02.420Z,0.10
2023-01-11T02:50:13.976Z,0.20
2023-01-11T02:55:19.900Z,0.10
2023-01-11T03:00:22.977Z,0.20
2023-01-11T03:05:24.698Z,0.00
2023-01-11T03:10:50.230Z,0.00
2023-01-11T03:16:11.162Z,0.32
2023-01-11T03:21:57.361Z,0.00
2023-01-11T03:27:12.299Z,0.10
2023-01-11T03:32:45.815Z,0.00
2023-01-11T03:38:13.216Z,0.10
2023-01-11T03:43:19.670Z,0.00
2023-01-11T03:48:31.025Z,0.00
2023-01-11T03:53:37.131Z,0.10
2023-01-11T03:58:39.197Z,0.22
2023-01-11T04:03:41.001Z,0.20
2023-01-11T04:08:42.899Z,0.20
2023-01-11T04:13:44.903Z,0.10
2023-01-11T04:18:46.784Z,0.15
2023-01-11T04:23:49.156Z,0.22
2023-01-11T04:28:54.021Z,0.10
2023-01-11T04:33:56.143Z,0.08
2023-01-11T04:38:58.774Z,0.03
2023-01-11T04:44:00.597Z,0.00
2023-01-11T04:49:03.015Z,0.10
2023-01-11T04:54:04.987Z,0.10
2023-01-11T04:59:06.923Z,0.08
2023-01-11T05:04:08.867Z,0.05
2023-01-11T05:09:17.999Z,0.22
2023-01-11T05:14:19.947Z,0.15
2023-01-11T05:19:21.886Z,0.10
2023-01-11T05:24:23.784Z,0.00
2023-01-11T05:29:25.654Z,0.03
2023-01-11T05:34:27.556Z,0.05
2023-01-11T05:39:29.727Z,0.20
2023-01-11T05:44:50.279Z,0.03
2023-01-11T05:49:52.184Z,0.10
2023-01-11T05:54:54.157Z,0.00
2023-01-11T05:59:56.584Z,0.20
2023-01-11T06:04:58.511Z,0.10
2023-01-11T06:10:00.419Z,0.20
2023-01-11T06:15:02.326Z,0.10
2023-01-11T06:20:04.610Z,0.10
2023-01-11T06:25:06.808Z,0.10
2023-01-11T06:30:09.445Z,0.10
2023-01-11T06:35:11.313Z,0.10
2023-01-11T06:40:13.627Z,0.00
2023-01-11T06:45:15.635Z,0.57
2023-01-11T06:50:17.657Z,0.10
2023-01-11T06:55:19.843Z,0.10
2023-01-11T07:00:22.179Z,0.00
2023-01-11T07:05:24.430Z,0.10
2023-01-11T07:10:26.466Z,0.10
2023-01-11T07:15:28.848Z,0.10
2023-01-11T07:20:31.217Z,0.20
2023-01-11T07:25:33.368Z,0.10
2023-01-11T07:30:55.420Z,0.10
2023-01-11T07:36:00.918Z,0.22
2023-01-11T07:41:22.893Z,0.32
2023-01-11T07:46:24.899Z,0.95
2023-01-11T07:51:26.842Z,0.50
2023-01-11T07:56:29.631Z,0.73
2023-01-11T08:01:31.600Z,0.43
2023-01-11T08:06:33.590Z,0.60
2023-01-11T08:11:54.232Z,1.23
2023-01-11T08:16:56.207Z,1.83
2023-01-11T08:21:58.227Z,1.55
2023-01-11T08:27:00.482Z,1.40
2023-01-11T08:32:02.593Z,1.20
2023-01-11T08:37:05.680Z,1.00
2023-01-11T08:42:07.847Z,1.30
2023-01-11T08:47:09.695Z,1.10
2023-01-11T08:52:14.433Z,1.08
2023-01-11T08:57:16.483Z,1.55
2023-01-11T09:02:18.321Z,1.15
2023-01-11T09:07:20.176Z,0.95
2023-01-11T09:12:22.178Z,0.80
2023-01-11T09:17:23.997Z,0.80
2023-01-11T09:22:26.168Z,0.90
2023-01-11T09:27:28.455Z,1.10
2023-01-11T09:32:30.387Z,0.82
2023-01-11T09:37:32.365Z,0.95
2023-01-11T09:42:40.039Z,1.50
2023-01-11T09:48:17.594Z,1.77
2023-01-11T09:53:31.769Z,1.95
2023-01-11T09:59:33.656Z,2.03
2023-01-11T10:04:53.874Z,2.20
2023-01-11T10:18:22.775Z,1.05
2023-01-11T10:21:55.487Z,1.75
2023-01-11T10:27:00.183Z,1.20
2023-01-11T10:32:03.053Z,0.95
2023-01-11T10:37:51.613Z,1.13
2023-01-11T10:43:13.325Z,1.15
2023-01-11T10:48:24.631Z,1.25
2023-01-11T10:53:37.527Z,0.70
2023-01-11T10:59:04.261Z,1.23
2023-01-11T11:04:24.312Z,1.38
2023-01-11T11:09:32.440Z,0.77
2023-01-11T11:15:23.971Z,1.05
2023-01-11T11:20:31.728Z,1.42
2023-01-11T11:25:42.538Z,1.27
2023-01-11T11:30:47.651Z,1.10
2023-01-11T11:36:00.076Z,1.38
2023-01-11T11:41:09.430Z,1.08
2023-01-11T11:46:18.757Z,0.98
2023-01-11T11:51:23.253Z,1.00
2023-01-11T11:56:31.132Z,1.10
2023-01-11T12:01:36.047Z,2.10
2023-01-11T12:06:38.502Z,0.93
2023-01-11T12:11:42.419Z,0.80
2023-01-11T12:16:47.677Z,1.15
2023-01-11T12:21:51.156Z,1.27
2023-01-11T12:26:55.961Z,1.20
2023-01-11T12:32:26.261Z,1.35
2023-01-11T12:38:00.442Z,1.27
2023-01-11T12:43:11.558Z,1.23
2023-01-11T12:48:43.712Z,1.73
2023-01-11T12:54:27.589Z,2.10
2023-01-11T13:00:01.656Z,1.05
2023-01-11T13:05:23.795Z,0.80
2023-01-11T13:11:03.379Z,1.25
2023-01-11T13:16:18.113Z,1.10
2023-01-11T13:21:28.725Z,1.30
2023-01-11T13:26:50.655Z,0.98
2023-01-11T13:31:54.648Z,0.90
2023-01-11T13:37:02.908Z,1.38
2023-01-11T13:42:13.391Z,1.08
2023-01-11T13:47:37.058Z,1.13
2023-01-11T13:53:14.572Z,0.68
2023-01-11T13:58:29.326Z,0.65
2023-01-11T14:04:08.524Z,0.85
2023-01-11T14:09:10.583Z,0.93
2023-01-11T14:14:34.954Z,1.00
2023-01-11T14:19:48.042Z,1.08
2023-01-11T14:24:59.929Z,0.77
2023-01-11T14:30:25.692Z,0.75
2023-01-11T14:36:02.011Z,1.05
2023-01-11T14:41:46.799Z,1.13
2023-01-11T14:47:12.742Z,0.70
2023-01-11T14:52:34.591Z,0.60
2023-01-11T14:57:43.311Z,0.85
2023-01-11T15:03:05.027Z,0.65
2023-01-11T15:08:15.758Z,0.77
2023-01-11T15:13:26.074Z,0.98
2023-01-11T15:18:28.346Z,1.00
2023-01-11T15:23:38.533Z,0.70
2023-01-11T15:28:52.901Z,0.77
2023-01-11T15:33:55.914Z,0.50
2023-01-11T15:39:03.737Z,0.85
2023-01-11T15:44:16.489Z,0.65
2023-01-11T15:50:06.489Z,0.55
2023-01-11T15:55:17.737Z,0.63
2023-01-11T16:00:38.133Z,0.60
2023-01-11T16:05:51.047Z,0.63
2023-01-11T16:11:02.442Z,0.30
2023-01-11T16:16:29.511Z,0.57
2023-01-11T16:21:35.086Z,0.80
2023-01-11T16:26:41.277Z,0.52
2023-01-11T16:32:05.021Z,0.40
2023-01-11T16:37:40.283Z,0.43
2023-01-11T16:42:54.853Z,0.65
2023-01-11T16:48:08.203Z,0.52
2023-01-11T16:53:14.981Z,0.70
2023-01-11T16:58:19.488Z,0.55
2023-01-11T17:03:24.602Z,0.85
2023-01-11T17:08:36.933Z,0.90
2023-01-11T17:13:57.450Z,0.43
2023-01-11T17:19:07.031Z,0.60
2023-01-11T17:24:13.027Z,1.55
2023-01-11T17:29:33.089Z,0.47
2023-01-11T17:34:38.214Z,0.63
2023-01-11T17:39:49.342Z,1.10
2023-01-11T17:45:12.011Z,1.10
2023-01-11T17:50:39.767Z,0.63
2023-01-11T17:55:53.297Z,1.02
2023-01-11T18:01:20.643Z,0.68
2023-01-11T18:06:45.235Z,0.63
2023-01-11T18:11:47.526Z,1.17
2023-01-11T18:17:03.296Z,0.60
2023-01-11T18:22:27.896Z,0.85
2023-01-11T18:27:35.769Z,0.80
2023-01-11T18:32:41.999Z,0.85
2023-01-11T18:37:43.798Z,0.93
2023-01-11T18:42:53.450Z,0.60
2023-01-11T18:47:55.423Z,0.35
2023-01-11T18:52:58.271Z,0.55
2023-01-11T18:58:00.197Z,0.45
2023-01-11T19:03:03.832Z,0.68
2023-01-11T19:08:06.079Z,0.70
2023-01-11T19:13:08.104Z,1.02
2023-01-11T19:18:10.088Z,0.82
2023-01-11T19:23:12.441Z,0.70
2023-01-11T19:28:14.231Z,0.80
2023-01-11T19:33:16.072Z,0.63
2023-01-11T19:38:19.621Z,1.13
2023-01-11T19:43:21.616Z,0.50
2023-01-11T19:48:24.189Z,0.82
2023-01-11T19:53:26.156Z,0.65
2023-01-11T19:58:28.574Z,0.90
2023-01-11T20:03:30.548Z,0.90
2023-01-11T20:08:33.579Z,0.93
2023-01-11T20:13:35.734Z,0.75
2023-01-11T20:18:37.892Z,1.02
2023-01-11T20:23:39.779Z,0.75
2023-01-11T20:28:50.207Z,0.68
2023-01-11T20:33:53.148Z,0.82
2023-01-11T20:38:56.670Z,0.43
2023-01-11T20:43:59.363Z,1.02
2023-01-11T20:49:01.686Z,0.95
2023-01-11T20:54:05.181Z,0.73
2023-01-11T20:59:08.376Z,0.50
2023-01-11T21:04:11.975Z,0.75
2023-01-11T21:09:17.355Z,0.88
2023-01-11T21:14:19.719Z,0.35
2023-01-11T21:19:21.997Z,0.70
2023-01-11T21:24:23.997Z,0.60
2023-01-11T21:29:26.174Z,0.38
2023-01-11T21:34:28.823Z,0.30
2023-01-11T21:39:30.777Z,0.80
2023-01-11T21:44:34.405Z,1.00
2023-01-11T21:49:36.323Z,0.40
2023-01-11T21:54:38.437Z,0.75
2023-01-11T21:59:40.657Z,0.50
2023-01-11T22:04:42.637Z,0.75
2023-01-11T22:09:59.849Z,1.13
2023-01-11T22:15:06.397Z,0.20
2023-01-11T22:20:08.950Z,0.55
2023-01-11T22:25:10.869Z,0.60
2023-01-11T22:30:12.928Z,0.35
2023-01-11T22:35:14.829Z,0.63
2023-01-11T22:40:16.767Z,0.60
2023-01-11T22:45:18.653Z,0.47
2023-01-11T22:50:20.580Z,0.55
2023-01-11T22:55:23.055Z,0.90
2023-01-11T23:00:24.971Z,0.50
2023-01-11T23:05:27.474Z,0.90
2023-01-11T23:10:29.410Z,0.47
2023-01-11T23:15:31.395Z,0.40
2023-01-11T23:20:36.081Z,0.55
2023-01-11T23:25:37.834Z,0.40
2023-01-11T23:30:40.036Z,0.35
2023-01-11T23:35:42.017Z,0.38
2023-01-11T23:41:02.435Z,0.63
2023-01-11T23:46:24.852Z,0.85
2023-01-11T23:51:26.728Z,0.50
2023-01-11T23:56:29.213Z,0.50
